sensor_id;sensor_type;location;lat;lon;timestamp;temperature;humidity
62906;DHT22;49003;51.038;3.602;2022-07-04T00:01:08;11.10;99.90
62906;DHT22;49003;51.038;3.602;2022-07-04T00:03:36;11.00;99.90
62906;DHT22;49003;51.038;3.602;2022-07-04T00:06:02;10.90;99.90
62906;DHT22;49003;51.038;3.602;2022-07-04T00:08:28;10.90;99.90
62906;DHT22;49003;51.038;3.602;2022-07-04T00:10:54;10.90;99.90
62906;DHT22;49003;51.038;3.602;2022-07-04T00:13:21;10.80;99.90
62906;DHT22;49003;51.038;3.602;2022-07-04T00:15:47;10.80;99.90
62906;DHT22;49003;51.038;3.602;2022-07-04T00:18:13;10.80;99.90
62906;DHT22;49003;51.038;3.602;2022-07-04T00:20:39;10.70;99.90
62906;DHT22;49003;51.038;3.602;2022-07-04T00:23:07;10.80;99.90
62906;DHT22;49003;51.038;3.602;2022-07-04T00:25:35;10.90;99.90
62906;DHT22;49003;51.038;3.602;2022-07-04T00:28:01;11.10;99.90
62906;DHT22;49003;51.038;3.602;2022-07-04T00:30:27;11.30;99.90
62906;DHT22;49003;51.038;3.602;2022-07-04T00:32:55;11.40;99.90
62906;DHT22;49003;51.038;3.602;2022-07-04T00:35:23;11.50;99.90
62906;DHT22;49003;51.038;3.602;2022-07-04T00:37:51;11.50;99.90
62906;DHT22;49003;51.038;3.602;2022-07-04T00:40:16;11.50;99.90
62906;DHT22;49003;51.038;3.602;2022-07-04T00:42:45;11.50;99.90
62906;DHT22;49003;51.038;3.602;2022-07-04T00:45:11;11.40;99.90
62906;DHT22;49003;51.038;3.602;2022-07-04T00:47:39;11.40;99.90
62906;DHT22;49003;51.038;3.602;2022-07-04T00:50:05;11.40;99.90
62906;DHT22;49003;51.038;3.602;2022-07-04T00:52:31;11.50;99.90
62906;DHT22;49003;51.038;3.602;2022-07-04T00:54:57;11.60;99.90
62906;DHT22;49003;51.038;3.602;2022-07-04T00:57:25;11.70;99.90
62906;DHT22;49003;51.038;3.602;2022-07-04T00:59:51;11.60;99.90
62906;DHT22;49003;51.038;3.602;2022-07-04T01:02:17;11.60;99.90
62906;DHT22;49003;51.038;3.602;2022-07-04T01:04:45;11.60;99.90
62906;DHT22;49003;51.038;3.602;2022-07-04T01:07:11;11.60;99.90
62906;DHT22;49003;51.038;3.602;2022-07-04T01:09:39;11.60;99.90
62906;DHT22;49003;51.038;3.602;2022-07-04T01:12:05;11.70;99.90
62906;DHT22;49003;51.038;3.602;2022-07-04T01:14:31;11.60;99.90
62906;DHT22;49003;51.038;3.602;2022-07-04T01:16:57;11.70;99.90
62906;DHT22;49003;51.038;3.602;2022-07-04T01:19:23;11.70;99.90
62906;DHT22;49003;51.038;3.602;2022-07-04T01:21:52;11.60;99.90
62906;DHT22;49003;51.038;3.602;2022-07-04T01:24:20;11.60;99.90
62906;DHT22;49003;51.038;3.602;2022-07-04T01:26:46;11.70;99.90
62906;DHT22;49003;51.038;3.602;2022-07-04T01:29:15;11.70;99.90
62906;DHT22;49003;51.038;3.602;2022-07-04T01:31:43;11.70;99.90
62906;DHT22;49003;51.038;3.602;2022-07-04T01:34:09;11.70;99.90
62906;DHT22;49003;51.038;3.602;2022-07-04T01:36:34;11.70;99.90
62906;DHT22;49003;51.038;3.602;2022-07-04T01:39:02;11.70;99.90
62906;DHT22;49003;51.038;3.602;2022-07-04T01:41:33;11.60;99.90
62906;DHT22;49003;51.038;3.602;2022-07-04T01:43:59;11.70;99.90
62906;DHT22;49003;51.038;3.602;2022-07-04T01:46:27;11.60;99.90
62906;DHT22;49003;51.038;3.602;2022-07-04T01:48:53;11.60;99.90
62906;DHT22;49003;51.038;3.602;2022-07-04T01:51:18;11.60;99.90
62906;DHT22;49003;51.038;3.602;2022-07-04T01:53:46;11.50;99.90
62906;DHT22;49003;51.038;3.602;2022-07-04T01:56:12;11.60;99.90
62906;DHT22;49003;51.038;3.602;2022-07-04T01:58:38;11.60;99.90
62906;DHT22;49003;51.038;3.602;2022-07-04T02:01:04;11.60;99.90
62906;DHT22;49003;51.038;3.602;2022-07-04T02:03:48;11.60;99.90
62906;DHT22;49003;51.038;3.602;2022-07-04T02:06:14;11.50;99.90
62906;DHT22;49003;51.038;3.602;2022-07-04T02:08:40;11.40;99.90
62906;DHT22;49003;51.038;3.602;2022-07-04T02:11:25;11.30;99.90
62906;DHT22;49003;51.038;3.602;2022-07-04T02:13:50;11.20;99.90
62906;DHT22;49003;51.038;3.602;2022-07-04T02:16:16;11.10;99.90
62906;DHT22;49003;51.038;3.602;2022-07-04T02:18:44;11.20;99.90
62906;DHT22;49003;51.038;3.602;2022-07-04T02:21:10;11.10;99.90
62906;DHT22;49003;51.038;3.602;2022-07-04T02:23:37;11.10;99.90
62906;DHT22;49003;51.038;3.602;2022-07-04T02:26:10;11.20;99.90
62906;DHT22;49003;51.038;3.602;2022-07-04T02:28:35;11.20;99.90
62906;DHT22;49003;51.038;3.602;2022-07-04T02:31:04;11.10;99.90
62906;DHT22;49003;51.038;3.602;2022-07-04T02:33:30;11.10;99.90
62906;DHT22;49003;51.038;3.602;2022-07-04T02:35:56;11.00;99.90
62906;DHT22;49003;51.038;3.602;2022-07-04T02:38:21;11.00;99.90
62906;DHT22;49003;51.038;3.602;2022-07-04T02:40:47;11.00;99.90
62906;DHT22;49003;51.038;3.602;2022-07-04T02:43:15;11.00;99.90
62906;DHT22;49003;51.038;3.602;2022-07-04T02:45:41;10.90;99.90
62906;DHT22;49003;51.038;3.602;2022-07-04T02:48:09;10.80;99.90
62906;DHT22;49003;51.038;3.602;2022-07-04T02:50:37;10.70;99.90
62906;DHT22;49003;51.038;3.602;2022-07-04T02:53:03;10.80;99.90
62906;DHT22;49003;51.038;3.602;2022-07-04T02:55:29;10.80;99.90
62906;DHT22;49003;51.038;3.602;2022-07-04T02:57:54;10.90;99.90
62906;DHT22;49003;51.038;3.602;2022-07-04T03:00:20;10.90;99.90
62906;DHT22;49003;51.038;3.602;2022-07-04T03:02:48;10.90;99.90
62906;DHT22;49003;51.038;3.602;2022-07-04T03:05:14;10.90;99.90
62906;DHT22;49003;51.038;3.602;2022-07-04T03:07:40;11.00;99.90
62906;DHT22;49003;51.038;3.602;2022-07-04T03:10:06;11.00;99.90
62906;DHT22;49003;51.038;3.602;2022-07-04T03:12:32;11.00;99.90
62906;DHT22;49003;51.038;3.602;2022-07-04T03:14:58;11.00;99.90
62906;DHT22;49003;51.038;3.602;2022-07-04T03:17:25;11.00;99.90
62906;DHT22;49003;51.038;3.602;2022-07-04T03:19:51;11.10;99.90
62906;DHT22;49003;51.038;3.602;2022-07-04T03:22:17;11.20;99.90
62906;DHT22;49003;51.038;3.602;2022-07-04T03:24:43;11.20;99.90
62906;DHT22;49003;51.038;3.602;2022-07-04T03:27:09;11.20;99.90
62906;DHT22;49003;51.038;3.602;2022-07-04T03:29:35;11.20;99.90
62906;DHT22;49003;51.038;3.602;2022-07-04T03:32:01;11.20;99.90
62906;DHT22;49003;51.038;3.602;2022-07-04T03:34:27;11.20;99.90
62906;DHT22;49003;51.038;3.602;2022-07-04T03:36:53;11.20;99.90
62906;DHT22;49003;51.038;3.602;2022-07-04T03:39:21;11.10;99.90
62906;DHT22;49003;51.038;3.602;2022-07-04T03:41:50;11.20;99.90
62906;DHT22;49003;51.038;3.602;2022-07-04T03:44:16;11.20;99.90
62906;DHT22;49003;51.038;3.602;2022-07-04T03:46:42;11.20;99.90
62906;DHT22;49003;51.038;3.602;2022-07-04T03:49:08;11.30;99.90
62906;DHT22;49003;51.038;3.602;2022-07-04T03:51:36;11.40;99.90
62906;DHT22;49003;51.038;3.602;2022-07-04T03:54:04;11.30;99.90
62906;DHT22;49003;51.038;3.602;2022-07-04T03:56:30;11.40;99.90
62906;DHT22;49003;51.038;3.602;2022-07-04T03:58:56;11.50;99.90
62906;DHT22;49003;51.038;3.602;2022-07-04T04:01:22;11.60;99.90
62906;DHT22;49003;51.038;3.602;2022-07-04T04:03:48;11.80;99.90
62906;DHT22;49003;51.038;3.602;2022-07-04T04:06:32;11.80;99.90
62906;DHT22;49003;51.038;3.602;2022-07-04T04:08:58;11.80;99.90
62906;DHT22;49003;51.038;3.602;2022-07-04T04:11:24;11.80;99.90
62906;DHT22;49003;51.038;3.602;2022-07-04T04:13:49;11.90;99.90
62906;DHT22;49003;51.038;3.602;2022-07-04T04:16:15;11.90;99.90
62906;DHT22;49003;51.038;3.602;2022-07-04T04:18:43;11.90;99.90
62906;DHT22;49003;51.038;3.602;2022-07-04T04:21:09;11.90;99.90
62906;DHT22;49003;51.038;3.602;2022-07-04T04:23:35;11.90;99.90
62906;DHT22;49003;51.038;3.602;2022-07-04T04:26:03;11.90;99.90
62906;DHT22;49003;51.038;3.602;2022-07-04T04:28:29;11.90;99.90
62906;DHT22;49003;51.038;3.602;2022-07-04T04:30:55;12.00;99.90
62906;DHT22;49003;51.038;3.602;2022-07-04T04:33:21;12.00;99.90
62906;DHT22;49003;51.038;3.602;2022-07-04T04:35:49;12.10;99.90
62906;DHT22;49003;51.038;3.602;2022-07-04T04:38:14;12.10;99.90
62906;DHT22;49003;51.038;3.602;2022-07-04T04:40:40;12.10;99.90
62906;DHT22;49003;51.038;3.602;2022-07-04T04:43:08;12.20;99.90
62906;DHT22;49003;51.038;3.602;2022-07-04T04:45:34;12.20;99.90
62906;DHT22;49003;51.038;3.602;2022-07-04T04:48:00;12.30;99.90
62906;DHT22;49003;51.038;3.602;2022-07-04T04:50:25;12.30;99.90
62906;DHT22;49003;51.038;3.602;2022-07-04T04:52:54;12.30;99.90
62906;DHT22;49003;51.038;3.602;2022-07-04T04:55:20;12.50;99.90
62906;DHT22;49003;51.038;3.602;2022-07-04T04:57:45;12.50;99.90
62906;DHT22;49003;51.038;3.602;2022-07-04T05:00:16;12.60;99.90
62906;DHT22;49003;51.038;3.602;2022-07-04T05:02:42;12.60;99.90
62906;DHT22;49003;51.038;3.602;2022-07-04T05:05:08;12.80;99.90
62906;DHT22;49003;51.038;3.602;2022-07-04T05:07:34;12.90;99.90
62906;DHT22;49003;51.038;3.602;2022-07-04T05:10:00;13.10;99.90
62906;DHT22;49003;51.038;3.602;2022-07-04T05:12:27;13.20;99.90
62906;DHT22;49003;51.038;3.602;2022-07-04T05:14:53;13.30;99.90
62906;DHT22;49003;51.038;3.602;2022-07-04T05:17:19;13.40;99.90
62906;DHT22;49003;51.038;3.602;2022-07-04T05:19:47;13.60;99.90
62906;DHT22;49003;51.038;3.602;2022-07-04T05:22:16;13.80;99.90
62906;DHT22;49003;51.038;3.602;2022-07-04T05:24:45;14.10;99.90
62906;DHT22;49003;51.038;3.602;2022-07-04T05:27:11;14.20;99.90
62906;DHT22;49003;51.038;3.602;2022-07-04T05:29:39;14.30;99.90
62906;DHT22;49003;51.038;3.602;2022-07-04T05:32:07;14.40;99.90
62906;DHT22;49003;51.038;3.602;2022-07-04T05:34:33;14.40;99.90
62906;DHT22;49003;51.038;3.602;2022-07-04T05:37:00;14.60;99.90
62906;DHT22;49003;51.038;3.602;2022-07-04T05:39:26;14.80;99.90
62906;DHT22;49003;51.038;3.602;2022-07-04T05:41:52;15.00;99.90
62906;DHT22;49003;51.038;3.602;2022-07-04T05:44:18;14.90;99.90
62906;DHT22;49003;51.038;3.602;2022-07-04T05:46:43;14.90;99.90
62906;DHT22;49003;51.038;3.602;2022-07-04T05:49:09;15.00;99.90
62906;DHT22;49003;51.038;3.602;2022-07-04T05:51:35;15.00;99.90
62906;DHT22;49003;51.038;3.602;2022-07-04T05:54:01;15.00;99.90
62906;DHT22;49003;51.038;3.602;2022-07-04T05:56:27;15.10;99.90
62906;DHT22;49003;51.038;3.602;2022-07-04T05:58:58;15.20;99.90
62906;DHT22;49003;51.038;3.602;2022-07-04T06:01:24;15.20;99.90
62906;DHT22;49003;51.038;3.602;2022-07-04T06:03:52;15.30;99.90
62906;DHT22;49003;51.038;3.602;2022-07-04T06:06:20;15.20;99.90
62906;DHT22;49003;51.038;3.602;2022-07-04T06:08:47;15.20;99.90
62906;DHT22;49003;51.038;3.602;2022-07-04T06:11:13;15.30;99.90
62906;DHT22;49003;51.038;3.602;2022-07-04T06:13:40;15.30;99.90
62906;DHT22;49003;51.038;3.602;2022-07-04T06:16:06;15.40;99.90
62906;DHT22;49003;51.038;3.602;2022-07-04T06:18:32;15.40;99.90
62906;DHT22;49003;51.038;3.602;2022-07-04T06:20:57;15.50;99.90
62906;DHT22;49003;51.038;3.602;2022-07-04T06:23:26;15.80;99.90
62906;DHT22;49003;51.038;3.602;2022-07-04T06:25:54;16.00;99.90
62906;DHT22;49003;51.038;3.602;2022-07-04T06:28:20;16.20;99.90
62906;DHT22;49003;51.038;3.602;2022-07-04T06:30:45;16.40;99.90
62906;DHT22;49003;51.038;3.602;2022-07-04T06:33:14;16.30;99.90
62906;DHT22;49003;51.038;3.602;2022-07-04T06:35:40;16.20;99.90
62906;DHT22;49003;51.038;3.602;2022-07-04T06:38:17;16.20;99.90
62906;DHT22;49003;51.038;3.602;2022-07-04T06:40:43;16.20;99.90
62906;DHT22;49003;51.038;3.602;2022-07-04T06:43:09;16.00;99.90
62906;DHT22;49003;51.038;3.602;2022-07-04T06:45:37;16.00;99.90
62906;DHT22;49003;51.038;3.602;2022-07-04T06:48:05;16.00;99.90
62906;DHT22;49003;51.038;3.602;2022-07-04T06:50:32;16.00;99.90
62906;DHT22;49003;51.038;3.602;2022-07-04T06:52:59;16.20;99.90
62906;DHT22;49003;51.038;3.602;2022-07-04T06:55:26;16.40;99.90
62906;DHT22;49003;51.038;3.602;2022-07-04T06:57:52;16.60;99.90
62906;DHT22;49003;51.038;3.602;2022-07-04T07:00:18;16.90;99.90
62906;DHT22;49003;51.038;3.602;2022-07-04T07:02:46;17.10;99.90
62906;DHT22;49003;51.038;3.602;2022-07-04T07:05:14;17.30;99.90
62906;DHT22;49003;51.038;3.602;2022-07-04T07:07:41;17.30;99.90
62906;DHT22;49003;51.038;3.602;2022-07-04T07:10:07;17.30;99.90
62906;DHT22;49003;51.038;3.602;2022-07-04T07:12:34;17.20;99.90
62906;DHT22;49003;51.038;3.602;2022-07-04T07:15:02;17.30;99.90
62906;DHT22;49003;51.038;3.602;2022-07-04T07:17:28;17.30;99.90
62906;DHT22;49003;51.038;3.602;2022-07-04T07:19:56;17.50;99.90
62906;DHT22;49003;51.038;3.602;2022-07-04T07:22:23;17.80;99.90
62906;DHT22;49003;51.038;3.602;2022-07-04T07:24:53;18.00;99.90
62906;DHT22;49003;51.038;3.602;2022-07-04T07:27:19;17.90;99.90
62906;DHT22;49003;51.038;3.602;2022-07-04T07:29:48;17.90;99.90
62906;DHT22;49003;51.038;3.602;2022-07-04T07:32:14;18.10;99.90
62906;DHT22;49003;51.038;3.602;2022-07-04T07:34:43;18.10;99.90
62906;DHT22;49003;51.038;3.602;2022-07-04T07:37:09;18.10;99.90
62906;DHT22;49003;51.038;3.602;2022-07-04T07:39:37;18.00;99.90
62906;DHT22;49003;51.038;3.602;2022-07-04T07:42:03;17.80;99.90
62906;DHT22;49003;51.038;3.602;2022-07-04T07:44:29;17.80;99.90
62906;DHT22;49003;51.038;3.602;2022-07-04T07:46:55;17.70;99.90
62906;DHT22;49003;51.038;3.602;2022-07-04T07:49:24;17.90;99.90
62906;DHT22;49003;51.038;3.602;2022-07-04T07:51:49;18.20;99.90
62906;DHT22;49003;51.038;3.602;2022-07-04T07:54:17;18.20;99.90
62906;DHT22;49003;51.038;3.602;2022-07-04T07:56:44;18.10;99.90
62906;DHT22;49003;51.038;3.602;2022-07-04T07:59:10;18.10;99.90
62906;DHT22;49003;51.038;3.602;2022-07-04T08:01:36;18.30;99.90
62906;DHT22;49003;51.038;3.602;2022-07-04T08:04:03;18.40;99.90
62906;DHT22;49003;51.038;3.602;2022-07-04T08:06:47;18.50;99.90
62906;DHT22;49003;51.038;3.602;2022-07-04T08:09:15;18.50;99.90
62906;DHT22;49003;51.038;3.602;2022-07-04T08:11:41;18.60;99.90
62906;DHT22;49003;51.038;3.602;2022-07-04T08:14:10;18.80;99.90
62906;DHT22;49003;51.038;3.602;2022-07-04T08:16:36;18.90;99.90
62906;DHT22;49003;51.038;3.602;2022-07-04T08:19:03;18.90;99.90
62906;DHT22;49003;51.038;3.602;2022-07-04T08:21:31;18.90;99.90
62906;DHT22;49003;51.038;3.602;2022-07-04T08:23:57;18.80;99.90
62906;DHT22;49003;51.038;3.602;2022-07-04T08:26:23;19.00;99.90
62906;DHT22;49003;51.038;3.602;2022-07-04T08:28:49;19.10;99.90
62906;DHT22;49003;51.038;3.602;2022-07-04T08:31:18;19.50;99.90
62906;DHT22;49003;51.038;3.602;2022-07-04T08:33:47;19.70;99.90
62906;DHT22;49003;51.038;3.602;2022-07-04T08:36:13;19.80;99.90
62906;DHT22;49003;51.038;3.602;2022-07-04T08:38:39;20.10;99.90
62906;DHT22;49003;51.038;3.602;2022-07-04T08:41:04;20.00;99.90
62906;DHT22;49003;51.038;3.602;2022-07-04T08:43:32;20.20;99.90
62906;DHT22;49003;51.038;3.602;2022-07-04T08:46:00;20.40;99.90
62906;DHT22;49003;51.038;3.602;2022-07-04T08:48:32;20.40;99.90
62906;DHT22;49003;51.038;3.602;2022-07-04T08:51:13;20.50;99.90
62906;DHT22;49003;51.038;3.602;2022-07-04T08:53:48;20.50;99.90
62906;DHT22;49003;51.038;3.602;2022-07-04T08:56:17;20.50;99.90
62906;DHT22;49003;51.038;3.602;2022-07-04T08:59:02;20.60;99.90
62906;DHT22;49003;51.038;3.602;2022-07-04T09:01:30;20.70;99.90
62906;DHT22;49003;51.038;3.602;2022-07-04T09:03:59;20.90;99.90
62906;DHT22;49003;51.038;3.602;2022-07-04T09:06:26;21.20;99.90
62906;DHT22;49003;51.038;3.602;2022-07-04T09:08:54;21.50;99.90
62906;DHT22;49003;51.038;3.602;2022-07-04T09:11:22;21.70;99.90
62906;DHT22;49003;51.038;3.602;2022-07-04T09:13:51;21.60;99.90
62906;DHT22;49003;51.038;3.602;2022-07-04T09:16:17;21.80;99.90
62906;DHT22;49003;51.038;3.602;2022-07-04T09:18:45;21.80;99.90
62906;DHT22;49003;51.038;3.602;2022-07-04T09:21:11;21.70;99.90
62906;DHT22;49003;51.038;3.602;2022-07-04T09:23:43;21.90;99.90
62906;DHT22;49003;51.038;3.602;2022-07-04T09:26:11;21.90;99.90
62906;DHT22;49003;51.038;3.602;2022-07-04T09:28:43;21.90;99.90
62906;DHT22;49003;51.038;3.602;2022-07-04T09:31:23;22.10;99.90
62906;DHT22;49003;51.038;3.602;2022-07-04T09:33:51;22.50;99.90
62906;DHT22;49003;51.038;3.602;2022-07-04T09:36:20;22.30;99.90
62906;DHT22;49003;51.038;3.602;2022-07-04T09:41:29;21.90;99.90
62906;DHT22;49003;51.038;3.602;2022-07-04T09:44:06;22.10;99.90
62906;DHT22;49003;51.038;3.602;2022-07-04T09:46:32;22.60;99.90
62906;DHT22;49003;51.038;3.602;2022-07-04T09:48:58;23.20;99.90
62906;DHT22;49003;51.038;3.602;2022-07-04T09:51:46;23.80;99.90
62906;DHT22;49003;51.038;3.602;2022-07-04T09:54:15;23.70;99.90
62906;DHT22;49003;51.038;3.602;2022-07-04T09:56:48;23.50;99.90
62906;DHT22;49003;51.038;3.602;2022-07-04T09:59:15;23.10;99.90
62906;DHT22;49003;51.038;3.602;2022-07-04T10:01:43;22.90;99.90
62906;DHT22;49003;51.038;3.602;2022-07-04T10:04:09;23.30;99.90
62906;DHT22;49003;51.038;3.602;2022-07-04T10:06:44;23.90;99.90
62906;DHT22;49003;51.038;3.602;2022-07-04T10:09:18;24.20;99.90
62906;DHT22;49003;51.038;3.602;2022-07-04T10:11:45;24.50;99.90
62906;DHT22;49003;51.038;3.602;2022-07-04T10:14:12;24.80;99.90
62906;DHT22;49003;51.038;3.602;2022-07-04T10:16:41;24.50;99.90
62906;DHT22;49003;51.038;3.602;2022-07-04T10:19:10;24.50;99.90
62906;DHT22;49003;51.038;3.602;2022-07-04T10:21:38;24.80;99.90
62906;DHT22;49003;51.038;3.602;2022-07-04T10:24:04;24.50;99.90
62906;DHT22;49003;51.038;3.602;2022-07-04T10:26:33;24.50;99.90
62906;DHT22;49003;51.038;3.602;2022-07-04T10:29:01;24.60;99.90
62906;DHT22;49003;51.038;3.602;2022-07-04T10:31:29;24.20;99.90
62906;DHT22;49003;51.038;3.602;2022-07-04T10:33:59;24.30;99.90
62906;DHT22;49003;51.038;3.602;2022-07-04T10:36:28;24.40;99.90
62906;DHT22;49003;51.038;3.602;2022-07-04T10:39:04;24.40;99.90
62906;DHT22;49003;51.038;3.602;2022-07-04T10:41:31;24.50;99.90
62906;DHT22;49003;51.038;3.602;2022-07-04T10:43:59;24.50;98.40
62906;DHT22;49003;51.038;3.602;2022-07-04T10:46:44;24.10;99.80
62906;DHT22;49003;51.038;3.602;2022-07-04T10:49:27;24.20;99.70
62906;DHT22;49003;51.038;3.602;2022-07-04T10:52:09;24.30;99.90
62906;DHT22;49003;51.038;3.602;2022-07-04T10:54:37;24.70;99.90
62906;DHT22;49003;51.038;3.602;2022-07-04T10:57:16;25.40;99.90
62906;DHT22;49003;51.038;3.602;2022-07-04T11:00:05;25.50;96.40
62906;DHT22;49003;51.038;3.602;2022-07-04T11:02:32;25.10;97.40
62906;DHT22;49003;51.038;3.602;2022-07-04T11:20:29;26.60;96.60
62906;DHT22;49003;51.038;3.602;2022-07-04T11:23:12;26.70;93.00
62906;DHT22;49003;51.038;3.602;2022-07-04T11:25:42;25.90;93.30
62906;DHT22;49003;51.038;3.602;2022-07-04T11:28:27;25.50;93.60
62906;DHT22;49003;51.038;3.602;2022-07-04T11:30:56;25.10;95.30
62906;DHT22;49003;51.038;3.602;2022-07-04T11:33:31;25.40;94.80
62906;DHT22;49003;51.038;3.602;2022-07-04T11:36:15;26.00;95.50
62906;DHT22;49003;51.038;3.602;2022-07-04T11:39:06;26.10;92.80
62906;DHT22;49003;51.038;3.602;2022-07-04T11:41:33;25.60;92.50
62906;DHT22;49003;51.038;3.602;2022-07-04T11:44:21;24.80;93.60
62906;DHT22;49003;51.038;3.602;2022-07-04T11:47:24;24.10;96.40
62906;DHT22;49003;51.038;3.602;2022-07-04T11:49:55;23.60;97.20
62906;DHT22;49003;51.038;3.602;2022-07-04T11:52:30;23.90;98.00
62906;DHT22;49003;51.038;3.602;2022-07-04T11:54:56;24.20;99.20
62906;DHT22;49003;51.038;3.602;2022-07-04T11:57:37;24.40;98.80
62906;DHT22;49003;51.038;3.602;2022-07-04T12:02:40;24.40;96.70
62906;DHT22;49003;51.038;3.602;2022-07-04T12:05:10;24.40;98.60
62906;DHT22;49003;51.038;3.602;2022-07-04T12:07:41;24.70;95.20
62906;DHT22;49003;51.038;3.602;2022-07-04T12:10:22;25.10;94.20
62906;DHT22;49003;51.038;3.602;2022-07-04T12:13:03;24.90;95.50
62906;DHT22;49003;51.038;3.602;2022-07-04T12:15:49;24.60;94.80
62906;DHT22;49003;51.038;3.602;2022-07-04T12:18:20;24.10;96.80
62906;DHT22;49003;51.038;3.602;2022-07-04T12:20:48;24.20;96.80
62906;DHT22;49003;51.038;3.602;2022-07-04T12:23:15;24.20;98.00
62906;DHT22;49003;51.038;3.602;2022-07-04T12:25:45;24.40;96.60
62906;DHT22;49003;51.038;3.602;2022-07-04T12:28:14;24.90;93.00
62906;DHT22;49003;51.038;3.602;2022-07-04T12:33:19;25.90;96.40
62906;DHT22;49003;51.038;3.602;2022-07-04T12:41:06;27.40;90.90
62906;DHT22;49003;51.038;3.602;2022-07-04T12:48:39;27.50;92.80
62906;DHT22;49003;51.038;3.602;2022-07-04T12:51:16;27.90;90.70
62906;DHT22;49003;51.038;3.602;2022-07-04T12:53:45;28.40;87.60
62906;DHT22;49003;51.038;3.602;2022-07-04T12:56:42;27.80;85.90
62906;DHT22;49003;51.038;3.602;2022-07-04T12:59:16;27.00;90.50
62906;DHT22;49003;51.038;3.602;2022-07-04T13:01:44;26.90;88.60
62906;DHT22;49003;51.038;3.602;2022-07-04T13:04:14;26.50;88.60
62906;DHT22;49003;51.038;3.602;2022-07-04T13:06:41;26.70;90.00
62906;DHT22;49003;51.038;3.602;2022-07-04T13:09:07;27.00;87.80
62906;DHT22;49003;51.038;3.602;2022-07-04T13:11:34;27.40;87.70
62906;DHT22;49003;51.038;3.602;2022-07-04T13:14:19;27.50;84.30
62906;DHT22;49003;51.038;3.602;2022-07-04T13:16:45;27.30;83.80
62906;DHT22;49003;51.038;3.602;2022-07-04T13:19:11;26.70;86.70
62906;DHT22;49003;51.038;3.602;2022-07-04T13:21:37;25.90;86.10
62906;DHT22;49003;51.038;3.602;2022-07-04T13:24:03;25.80;86.40
62906;DHT22;49003;51.038;3.602;2022-07-04T13:26:29;25.80;88.00
62906;DHT22;49003;51.038;3.602;2022-07-04T13:28:57;25.90;91.40
62906;DHT22;49003;51.038;3.602;2022-07-04T13:31:23;26.20;90.20
62906;DHT22;49003;51.038;3.602;2022-07-04T13:33:49;26.50;91.10
62906;DHT22;49003;51.038;3.602;2022-07-04T13:36:14;25.90;89.40
62906;DHT22;49003;51.038;3.602;2022-07-04T13:38:41;25.40;89.60
62906;DHT22;49003;51.038;3.602;2022-07-04T13:41:07;24.90;90.30
62906;DHT22;49003;51.038;3.602;2022-07-04T13:43:35;24.50;91.40
62906;DHT22;49003;51.038;3.602;2022-07-04T13:46:01;24.40;90.60
62906;DHT22;49003;51.038;3.602;2022-07-04T13:48:28;24.40;90.80
62906;DHT22;49003;51.038;3.602;2022-07-04T13:50:56;24.40;92.70
62906;DHT22;49003;51.038;3.602;2022-07-04T13:53:22;24.50;90.30
62906;DHT22;49003;51.038;3.602;2022-07-04T13:55:48;25.30;89.10
62906;DHT22;49003;51.038;3.602;2022-07-04T13:58:17;26.40;88.30
62906;DHT22;49003;51.038;3.602;2022-07-04T14:00:45;27.80;82.40
62906;DHT22;49003;51.038;3.602;2022-07-04T14:03:11;28.10;83.90
62906;DHT22;49003;51.038;3.602;2022-07-04T14:05:37;27.70;82.90
62906;DHT22;49003;51.038;3.602;2022-07-04T14:08:03;28.10;82.60
62906;DHT22;49003;51.038;3.602;2022-07-04T14:10:31;30.30;82.30
62906;DHT22;49003;51.038;3.602;2022-07-04T14:12:57;31.70;76.50
62906;DHT22;49003;51.038;3.602;2022-07-04T14:15:22;31.70;75.90
62906;DHT22;49003;51.038;3.602;2022-07-04T14:17:48;31.60;75.50
62906;DHT22;49003;51.038;3.602;2022-07-04T14:20:14;31.90;75.00
62906;DHT22;49003;51.038;3.602;2022-07-04T14:22:40;33.30;71.20
62906;DHT22;49003;51.038;3.602;2022-07-04T14:25:07;34.00;68.40
62906;DHT22;49003;51.038;3.602;2022-07-04T14:27:33;31.20;70.10
62906;DHT22;49003;51.038;3.602;2022-07-04T14:29:59;29.00;75.10
62906;DHT22;49003;51.038;3.602;2022-07-04T14:32:25;27.80;75.40
62906;DHT22;49003;51.038;3.602;2022-07-04T14:34:51;27.50;75.40
62906;DHT22;49003;51.038;3.602;2022-07-04T14:37:21;26.90;80.20
62906;DHT22;49003;51.038;3.602;2022-07-04T14:39:49;26.20;78.50
62906;DHT22;49003;51.038;3.602;2022-07-04T14:42:15;26.10;80.30
62906;DHT22;49003;51.038;3.602;2022-07-04T14:44:42;26.00;79.30
62906;DHT22;49003;51.038;3.602;2022-07-04T14:47:08;25.80;82.00
62906;DHT22;49003;51.038;3.602;2022-07-04T14:49:33;24.90;87.50
62906;DHT22;49003;51.038;3.602;2022-07-04T14:51:59;25.50;88.10
62906;DHT22;49003;51.038;3.602;2022-07-04T14:54:26;26.40;86.20
62906;DHT22;49003;51.038;3.602;2022-07-04T14:56:52;27.30;84.90
62906;DHT22;49003;51.038;3.602;2022-07-04T14:59:18;27.60;84.40
62906;DHT22;49003;51.038;3.602;2022-07-04T15:01:44;27.50;83.00
62906;DHT22;49003;51.038;3.602;2022-07-04T15:04:12;27.60;81.60
62906;DHT22;49003;51.038;3.602;2022-07-04T15:06:38;27.50;83.30
62906;DHT22;49003;51.038;3.602;2022-07-04T15:09:05;26.20;83.80
62906;DHT22;49003;51.038;3.602;2022-07-04T15:11:34;25.90;87.00
62906;DHT22;49003;51.038;3.602;2022-07-04T15:14:02;26.10;85.60
62906;DHT22;49003;51.038;3.602;2022-07-04T15:16:33;26.00;86.20
62906;DHT22;49003;51.038;3.602;2022-07-04T15:19:01;26.60;85.00
62906;DHT22;49003;51.038;3.602;2022-07-04T15:21:29;26.40;83.80
62906;DHT22;49003;51.038;3.602;2022-07-04T15:24:27;24.90;88.20
62906;DHT22;49003;51.038;3.602;2022-07-04T15:26:53;24.00;91.10
62906;DHT22;49003;51.038;3.602;2022-07-04T15:29:21;24.10;90.90
62906;DHT22;49003;51.038;3.602;2022-07-04T15:31:47;25.00;91.30
62906;DHT22;49003;51.038;3.602;2022-07-04T15:34:14;26.70;86.40
62906;DHT22;49003;51.038;3.602;2022-07-04T15:36:41;27.20;83.70
62906;DHT22;49003;51.038;3.602;2022-07-04T15:39:16;27.20;84.70
62906;DHT22;49003;51.038;3.602;2022-07-04T15:41:43;27.00;83.70
62906;DHT22;49003;51.038;3.602;2022-07-04T15:44:09;26.60;83.50
62906;DHT22;49003;51.038;3.602;2022-07-04T15:46:36;26.00;86.40
62906;DHT22;49003;51.038;3.602;2022-07-04T15:49:22;26.30;87.40
62906;DHT22;49003;51.038;3.602;2022-07-04T15:51:47;27.10;86.80
62906;DHT22;49003;51.038;3.602;2022-07-04T15:54:19;26.30;86.30
62906;DHT22;49003;51.038;3.602;2022-07-04T15:56:45;24.90;88.90
62906;DHT22;49003;51.038;3.602;2022-07-04T15:59:10;24.50;90.30
62906;DHT22;49003;51.038;3.602;2022-07-04T16:01:38;25.50;90.00
62906;DHT22;49003;51.038;3.602;2022-07-04T16:04:05;26.30;88.10
62906;DHT22;49003;51.038;3.602;2022-07-04T16:06:31;26.60;85.00
62906;DHT22;49003;51.038;3.602;2022-07-04T16:08:57;26.50;84.80
62906;DHT22;49003;51.038;3.602;2022-07-04T16:11:27;26.90;84.80